MSC Fabiola — A8VL5 — position and weather

sailwx.info

Track history (hours):
 
Tides and Currents Weather Stations Pressure Air Temp Water Temp Dewpoint Dewpoint Depression Visibility Wind Speed Wind Dir Waves Ship Positions

MSC Fabiola

Last reported at 2014-Jul-12 12:17 UTC. Time now 2014-Jul-23 11:30 UTC.
Position N 01°16' E 103°46'.
Warning: this ship's position is 10 days out of date.

Length 366 m; draft 15 m.

Type: Ship. MMSI: 636092019.

Date/timePositionNaut miles runAvg speedWind from/ knotsBaromVisibWave heightAir tempDewpointWater temp
2014-Jul-12 12:17N 01°16' E 103°46'0 0.0
2014-Jul-12 10:29N 01°16' E 103°46'0 0.0
2014-Jul-12 09:29N 01°16' E 103°46'0 0.0
2014-Jul-12 08:23N 01°16' E 103°46'0 0.0
2014-Jul-12 07:20N 01°16' E 103°46'0 0.0
2014-Jul-12 05:14N 01°16' E 103°46'0 0.0
2014-Jul-12 04:11N 01°16' E 103°46'0 0.0
2014-Jul-12 03:23N 01°16' E 103°46'0 0.0
2014-Jul-12 01:32N 01°16' E 103°46'0 0.0
2014-Jul-11 22:29N 01°16' E 103°46'0 0.0
2014-Jul-11 21:08N 01°16' E 103°46'0 0.0
2014-Jul-11 19:29N 01°16' E 103°46'0 0.0
2014-Jul-11 17:26N 01°16' E 103°46'0 0.2
2014-Jul-11 16:33N 01°16' E 103°47'1 1.3
2014-Jul-11 15:23N 01°15' E 103°47'1 0.8
2014-Jul-11 14:33N 01°14' E 103°47'6 4.9
2014-Jul-11 13:18N 01°13' E 103°53'  
2014-Jul-07 08:30N 22°38' E 117°20'54518.1
2014-Jul-06 02:24N 30°10' E 122°60'1315.8
2014-Jul-06 01:33N 30°22' E 122°53'1616.4
2014-Jul-06 00:33N 30°29' E 122°36'1615.9
2014-Jul-05 23:33N 30°33' E 122°18'1210.3
2014-Jul-05 22:25N 30°36' E 122°05'0 0.0
2014-Jul-04 20:26N 30°36' E 122°05'5 6.0
2014-Jul-04 19:34N 30°34' E 122°10'10 9.6
2014-Jul-04 18:33N 30°32' E 122°21'1111.0
2014-Jul-04 17:33N 30°30' E 122°34'9 6.7
2014-Jul-04 16:16N 30°26' E 122°42'0 0.0
2014-Jul-04 15:28N 30°26' E 122°42'0 0.1
2014-Jul-04 14:28N 30°26' E 122°42'0 0.2
2014-Jul-04 13:28N 30°26' E 122°42'0 0.1
2014-Jul-04 12:22N 30°26' E 122°42'0 0.0
2014-Jul-04 11:16N 30°26' E 122°42'0 0.0
2014-Jul-04 10:28N 30°26' E 122°42'0 0.0
2014-Jul-04 09:22N 30°26' E 122°42'0 0.1
2014-Jul-04 08:28N 30°26' E 122°42'0 0.1
2014-Jul-04 07:22N 30°26' E 122°42'2 2.5
2014-Jul-04 06:33N 30°24' E 122°43'1212.0
2014-Jul-04 05:33N 30°16' E 122°54'1514.9
2014-Jul-04 04:34N 30°03' E 123°02'1414.3
2014-Jul-04 03:33N 29°52' E 122°52'1414.4
2014-Jul-04 02:33N 29°42' E 122°40'1312.9
2014-Jul-04 01:33N 29°42' E 122°25'1212.5
2014-Jul-04 00:33N 29°49' E 122°14'4 4.2
2014-Jul-03 23:32N 29°51' E 122°09'0 0.1
2014-Jul-03 22:32N 29°51' E 122°09'4 4.3
2014-Jul-03 21:33N 29°55' E 122°09'6 6.0
2014-Jul-03 20:31N 29°54' E 122°02'0 0.0
2014-Jul-03 19:25N 29°54' E 122°02'0 0.0
2014-Jul-03 18:31N 29°54' E 122°02'0 0.0
2014-Jul-03 17:31N 29°54' E 122°02'0 0.0
2014-Jul-03 16:19N 29°54' E 122°02'0 0.0
2014-Jul-03 15:31N 29°54' E 122°02'0 0.0
2014-Jul-03 14:31N 29°54' E 122°02'0 0.0
2014-Jul-03 13:31N 29°54' E 122°02'0 0.0
2014-Jul-03 12:25N 29°54' E 122°02'0 0.0
2014-Jul-03 11:25N 29°54' E 122°02'0 0.0
2014-Jul-03 10:25N 29°54' E 122°02'0 0.0
2014-Jul-03 08:25N 29°54' E 122°02'0 0.0
2014-Jul-03 07:31N 29°54' E 122°02'0 0.0
2014-Jul-03 06:31N 29°54' E 122°02'0 0.0
2014-Jul-03 05:31N 29°54' E 122°02'0 0.0
2014-Jul-03 04:31N 29°54' E 122°02'0 0.0
2014-Jul-03 03:31N 29°54' E 122°02'0 0.0
2014-Jul-03 02:31N 29°54' E 122°02'0 0.4
2014-Jul-03 01:33N 29°54' E 122°03'3 3.2
2014-Jul-03 00:33N 29°56' E 122°06'8 8.3
2014-Jul-02 23:33N 29°50' E 122°13'1010.3
2014-Jul-02 22:33N 29°44' E 122°23'9 9.3
2014-Jul-02 21:33N 29°40' E 122°32'1 0.9
2014-Jul-02 20:31N 29°39' E 122°33'0 0.1
2014-Jul-02 19:31N 29°39' E 122°33'0 0.1
2014-Jul-02 18:19N 29°39' E 122°33'0 0.1
2014-Jul-02 17:31N 29°39' E 122°33'0 0.1
2014-Jul-02 16:31N 29°39' E 122°33'0 0.1
2014-Jul-02 15:31N 29°39' E 122°33'0 0.0
2014-Jul-02 14:19N 29°39' E 122°33'0 0.1
2014-Jul-02 13:31N 29°39' E 122°33'0 0.1
2014-Jul-02 12:31N 29°39' E 122°33'  
Track history (hours):
 
Tides and Currents Weather Stations Pressure Air Temp Water Temp Dewpoint Dewpoint Depression Visibility Wind Speed Wind Dir Waves Ship Positions

MSC Fabiola

Last reported at 2014-Jul-12 12:17 UTC. Time now 2014-Jul-23 11:30 UTC.
Position N 01°16' E 103°46'.
Warning: this ship's position is 10 days out of date.

Length 366 m; draft 15 m.

Type: Ship. MMSI: 636092019.

Date/timePositionNaut miles runAvg speedWind from/ knotsBaromVisibWave heightAir tempDewpointWater temp
2014-Jul-12 12:17N 01°16' E 103°46'0 0.0
2014-Jul-12 10:29N 01°16' E 103°46'0 0.0
2014-Jul-12 09:29N 01°16' E 103°46'0 0.0
2014-Jul-12 08:23N 01°16' E 103°46'0 0.0
2014-Jul-12 07:20N 01°16' E 103°46'0 0.0
2014-Jul-12 05:14N 01°16' E 103°46'0 0.0
2014-Jul-12 04:11N 01°16' E 103°46'0 0.0
2014-Jul-12 03:23N 01°16' E 103°46'0 0.0
2014-Jul-12 01:32N 01°16' E 103°46'0 0.0
2014-Jul-11 22:29N 01°16' E 103°46'0 0.0
2014-Jul-11 21:08N 01°16' E 103°46'0 0.0
2014-Jul-11 19:29N 01°16' E 103°46'0 0.0
2014-Jul-11 17:26N 01°16' E 103°46'0 0.2
2014-Jul-11 16:33N 01°16' E 103°47'1 1.3
2014-Jul-11 15:23N 01°15' E 103°47'1 0.8
2014-Jul-11 14:33N 01°14' E 103°47'6 4.9
2014-Jul-11 13:18N 01°13' E 103°53'  
2014-Jul-07 08:30N 22°38' E 117°20'54518.1
2014-Jul-06 02:24N 30°10' E 122°60'1315.8
2014-Jul-06 01:33N 30°22' E 122°53'1616.4
2014-Jul-06 00:33N 30°29' E 122°36'1615.9
2014-Jul-05 23:33N 30°33' E 122°18'1210.3
2014-Jul-05 22:25N 30°36' E 122°05'0 0.0
2014-Jul-04 20:26N 30°36' E 122°05'5 6.0
2014-Jul-04 19:34N 30°34' E 122°10'10 9.6
2014-Jul-04 18:33N 30°32' E 122°21'1111.0
2014-Jul-04 17:33N 30°30' E 122°34'9 6.7
2014-Jul-04 16:16N 30°26' E 122°42'0 0.0
2014-Jul-04 15:28N 30°26' E 122°42'0 0.1
2014-Jul-04 14:28N 30°26' E 122°42'0 0.2
2014-Jul-04 13:28N 30°26' E 122°42'0 0.1
2014-Jul-04 12:22N 30°26' E 122°42'0 0.0
2014-Jul-04 11:16N 30°26' E 122°42'0 0.0
2014-Jul-04 10:28N 30°26' E 122°42'0 0.0
2014-Jul-04 09:22N 30°26' E 122°42'0 0.1
2014-Jul-04 08:28N 30°26' E 122°42'0 0.1
2014-Jul-04 07:22N 30°26' E 122°42'2 2.5
2014-Jul-04 06:33N 30°24' E 122°43'1212.0
2014-Jul-04 05:33N 30°16' E 122°54'1514.9
2014-Jul-04 04:34N 30°03' E 123°02'1414.3
2014-Jul-04 03:33N 29°52' E 122°52'1414.4
2014-Jul-04 02:33N 29°42' E 122°40'1312.9
2014-Jul-04 01:33N 29°42' E 122°25'1212.5
2014-Jul-04 00:33N 29°49' E 122°14'4 4.2
2014-Jul-03 23:32N 29°51' E 122°09'0 0.1
2014-Jul-03 22:32N 29°51' E 122°09'4 4.3
2014-Jul-03 21:33N 29°55' E 122°09'6 6.0
2014-Jul-03 20:31N 29°54' E 122°02'0 0.0
2014-Jul-03 19:25N 29°54' E 122°02'0 0.0
2014-Jul-03 18:31N 29°54' E 122°02'0 0.0
2014-Jul-03 17:31N 29°54' E 122°02'0 0.0
2014-Jul-03 16:19N 29°54' E 122°02'0 0.0
2014-Jul-03 15:31N 29°54' E 122°02'0 0.0
2014-Jul-03 14:31N 29°54' E 122°02'0 0.0
2014-Jul-03 13:31N 29°54' E 122°02'0 0.0
2014-Jul-03 12:25N 29°54' E 122°02'0 0.0
2014-Jul-03 11:25N 29°54' E 122°02'0 0.0
2014-Jul-03 10:25N 29°54' E 122°02'0 0.0
2014-Jul-03 08:25N 29°54' E 122°02'0 0.0
2014-Jul-03 07:31N 29°54' E 122°02'0 0.0
2014-Jul-03 06:31N 29°54' E 122°02'0 0.0
2014-Jul-03 05:31N 29°54' E 122°02'0 0.0
2014-Jul-03 04:31N 29°54' E 122°02'0 0.0
2014-Jul-03 03:31N 29°54' E 122°02'0 0.0
2014-Jul-03 02:31N 29°54' E 122°02'0 0.4
2014-Jul-03 01:33N 29°54' E 122°03'3 3.2
2014-Jul-03 00:33N 29°56' E 122°06'8 8.3
2014-Jul-02 23:33N 29°50' E 122°13'1010.3
2014-Jul-02 22:33N 29°44' E 122°23'9 9.3
2014-Jul-02 21:33N 29°40' E 122°32'1 0.9
2014-Jul-02 20:31N 29°39' E 122°33'0 0.1
2014-Jul-02 19:31N 29°39' E 122°33'0 0.1
2014-Jul-02 18:19N 29°39' E 122°33'0 0.1
2014-Jul-02 17:31N 29°39' E 122°33'0 0.1
2014-Jul-02 16:31N 29°39' E 122°33'0 0.1
2014-Jul-02 15:31N 29°39' E 122°33'0 0.0
2014-Jul-02 14:19N 29°39' E 122°33'0 0.1
2014-Jul-02 13:31N 29°39' E 122°33'0 0.1
2014-Jul-02 12:31N 29°39' E 122°33'  

Dump ship's entire track history